createdAt,value
2023-02-19T00:02:13.185Z,1.92
2023-02-19T00:04:40.275Z,2.05
2023-02-19T00:07:07.590Z,1.42
2023-02-19T00:09:34.660Z,1.75
2023-02-19T00:12:01.919Z,1.95
2023-02-19T00:14:28.911Z,2.42
2023-02-19T00:16:56.220Z,1.90
2023-02-19T00:19:23.577Z,2.88
2023-02-19T00:21:52.843Z,1.10
2023-02-19T00:24:20.905Z,1.85
2023-02-19T00:26:49.143Z,2.08
2023-02-19T00:29:21.387Z,2.30
2023-02-19T00:31:49.005Z,1.63
2023-02-19T00:34:16.341Z,1.50
2023-02-19T00:36:44.468Z,2.47
2023-02-19T00:39:15.728Z,2.03
2023-02-19T00:41:44.270Z,1.95
2023-02-19T00:44:13.038Z,2.05
2023-02-19T00:46:45.159Z,1.63
2023-02-19T00:49:20.874Z,1.75
2023-02-19T00:51:49.635Z,1.63
2023-02-19T00:54:17.286Z,1.48
2023-02-19T00:56:44.366Z,1.30
2023-02-19T00:59:13.398Z,1.33
2023-02-19T01:01:40.564Z,1.80
2023-02-19T01:04:08.202Z,1.38
2023-02-19T01:06:35.878Z,1.50
2023-02-19T01:09:04.950Z,1.73
2023-02-19T01:11:31.976Z,1.80
2023-02-19T01:14:00.501Z,1.10
2023-02-19T01:16:28.513Z,1.30
2023-02-19T01:18:57.294Z,1.63
2023-02-19T01:21:26.035Z,1.67
2023-02-19T01:23:54.668Z,1.70
2023-02-19T01:26:27.809Z,2.58
2023-02-19T01:28:55.225Z,1.77
2023-02-19T01:31:24.549Z,2.20
2023-02-19T01:33:55.587Z,1.77
2023-02-19T01:36:23.538Z,2.25
2023-02-19T01:38:51.240Z,2.00
2023-02-19T01:41:24.722Z,1.42
2023-02-19T01:44:00.293Z,1.83
2023-02-19T01:46:32.893Z,2.13
2023-02-19T01:49:06.311Z,2.00
2023-02-19T01:54:05.317Z,2.00
2023-02-19T01:56:34.735Z,2.25
2023-02-19T01:59:02.575Z,2.00
2023-02-19T02:01:29.687Z,2.67
2023-02-19T02:03:57.418Z,2.83
2023-02-19T02:06:29.633Z,2.40
2023-02-19T02:09:16.703Z,2.75
2023-02-19T02:11:50.402Z,2.83
2023-02-19T02:14:25.677Z,2.08
2023-02-19T02:17:05.725Z,2.53
2023-02-19T02:20:03.240Z,2.78
2023-02-19T02:22:30.140Z,2.75
2023-02-19T02:25:44.741Z,2.88
2023-02-19T02:28:26.741Z,3.05
2023-02-19T02:31:10.523Z,3.00
2023-02-19T02:33:44.671Z,3.28
2023-02-19T02:36:30.463Z,2.60
2023-02-19T02:38:58.492Z,3.17
2023-02-19T02:41:26.184Z,2.17
2023-02-19T02:43:53.213Z,2.78
2023-02-19T02:46:30.389Z,2.90
2023-02-19T02:49:00.096Z,2.97
2023-02-19T02:51:32.025Z,3.00
2023-02-19T02:54:24.534Z,3.22
2023-02-19T02:56:52.600Z,3.58
2023-02-19T02:59:26.961Z,3.15
2023-02-19T03:02:11.841Z,3.00
2023-02-19T03:05:17.499Z,3.35
2023-02-19T03:07:50.292Z,2.78
2023-02-19T03:10:27.009Z,2.83
2023-02-19T03:13:31.277Z,3.13
2023-02-19T03:16:22.661Z,4.28
2023-02-19T03:19:12.750Z,2.83
2023-02-19T03:21:42.374Z,3.92
2023-02-19T03:24:31.417Z,3.63
2023-02-19T03:27:02.240Z,2.90
2023-02-19T03:29:34.636Z,3.40
2023-02-19T03:32:10.097Z,3.77
2023-02-19T03:34:57.424Z,2.95
2023-02-19T03:37:36.642Z,3.40
2023-02-19T03:40:04.574Z,3.50
2023-02-19T03:42:46.372Z,3.13
2023-02-19T03:45:16.510Z,3.03
2023-02-19T03:47:54.193Z,3.05
2023-02-19T03:50:23.855Z,3.45
2023-02-19T03:53:09.965Z,3.35
2023-02-19T03:55:53.740Z,3.63
2023-02-19T03:58:44.687Z,2.75
2023-02-19T04:01:19.830Z,3.58
2023-02-19T04:03:56.617Z,3.17
2023-02-19T04:06:29.814Z,3.20
2023-02-19T04:09:00.892Z,3.85
2023-02-19T04:11:31.034Z,4.10
2023-02-19T04:14:09.818Z,3.78
2023-02-19T04:16:42.546Z,4.78
2023-02-19T04:19:13.498Z,4.35
2023-02-19T04:21:42.226Z,3.17
2023-02-19T04:24:24.460Z,3.70
2023-02-19T04:26:52.722Z,4.03
2023-02-19T04:29:19.642Z,3.28
2023-02-19T04:31:47.136Z,3.55
2023-02-19T04:34:14.062Z,3.05
2023-02-19T04:36:41.564Z,3.15
2023-02-19T04:39:08.706Z,3.83
2023-02-19T04:41:35.969Z,3.17
2023-02-19T04:44:03.118Z,2.95
2023-02-19T04:46:30.357Z,3.47
2023-02-19T04:48:57.315Z,3.00
2023-02-19T04:51:24.636Z,3.63
2023-02-19T04:53:51.691Z,3.70
2023-02-19T04:56:19.125Z,4.35
2023-02-19T04:58:46.398Z,3.78
2023-02-19T05:01:14.911Z,3.63
2023-02-19T05:03:42.066Z,4.30
2023-02-19T05:06:13.043Z,3.55
2023-02-19T05:08:40.756Z,3.28
2023-02-19T05:11:10.872Z,3.13
2023-02-19T05:13:39.379Z,2.95
2023-02-19T05:16:10.722Z,3.53
2023-02-19T05:18:37.709Z,2.33
2023-02-19T05:21:05.434Z,3.30
2023-02-19T05:23:32.618Z,3.22
2023-02-19T05:25:59.930Z,3.58
2023-02-19T05:28:29.004Z,3.92
2023-02-19T05:30:57.617Z,2.97
2023-02-19T05:33:26.214Z,3.55
2023-02-19T05:35:55.472Z,4.13
2023-02-19T05:38:23.377Z,3.88
2023-02-19T05:40:51.277Z,3.22
2023-02-19T05:43:18.292Z,2.95
2023-02-19T05:45:45.778Z,3.65
2023-02-19T05:48:12.988Z,3.45
2023-02-19T05:50:40.305Z,3.80
2023-02-19T05:53:07.358Z,3.38
2023-02-19T05:55:36.221Z,4.90
2023-02-19T05:58:03.585Z,3.25
2023-02-19T06:00:33.243Z,4.07
2023-02-19T06:03:00.877Z,3.83
2023-02-19T06:05:28.621Z,3.25
2023-02-19T06:07:55.647Z,3.60
2023-02-19T06:10:23.101Z,3.38
2023-02-19T06:12:53.567Z,2.63
2023-02-19T06:15:21.765Z,3.22
2023-02-19T06:17:49.432Z,2.85
2023-02-19T06:20:16.832Z,3.65
2023-02-19T06:22:43.894Z,3.53
2023-02-19T06:25:12.771Z,3.83
2023-02-19T06:27:39.842Z,4.00
2023-02-19T06:30:07.788Z,3.65
2023-02-19T06:32:34.796Z,3.88
2023-02-19T06:35:02.260Z,3.25
2023-02-19T06:37:29.453Z,3.80
2023-02-19T06:39:57.003Z,3.30
2023-02-19T06:42:24.071Z,3.05
2023-02-19T06:44:51.374Z,3.55
2023-02-19T06:47:18.381Z,2.38
2023-02-19T06:49:45.651Z,3.28
2023-02-19T06:52:12.724Z,2.85
2023-02-19T06:54:39.941Z,2.97
2023-02-19T06:57:06.953Z,3.25
2023-02-19T06:59:34.442Z,3.42
2023-02-19T07:02:01.400Z,3.08
2023-02-19T07:04:28.922Z,3.40
2023-02-19T07:06:55.993Z,2.72
2023-02-19T07:09:25.405Z,3.95
2023-02-19T07:11:52.414Z,3.42
2023-02-19T07:14:20.208Z,3.55
2023-02-19T07:16:47.908Z,2.97
2023-02-19T07:19:15.904Z,3.38
2023-02-19T07:21:43.179Z,3.70
2023-02-19T07:24:10.797Z,3.20
2023-02-19T07:26:38.485Z,3.30
2023-02-19T07:29:06.502Z,4.25
2023-02-19T07:31:33.659Z,3.30
2023-02-19T07:34:01.202Z,3.72
2023-02-19T07:36:28.325Z,3.70
2023-02-19T07:38:57.115Z,3.70
2023-02-19T07:41:25.071Z,3.45
2023-02-19T07:43:53.297Z,3.67
2023-02-19T07:46:20.814Z,3.53
2023-02-19T07:48:48.388Z,3.63
2023-02-19T07:51:19.111Z,3.67
2023-02-19T07:53:47.262Z,3.50
2023-02-19T07:56:14.357Z,3.58
2023-02-19T07:58:41.875Z,4.13
2023-02-19T08:01:19.475Z,5.18
2023-02-19T08:03:48.884Z,4.30
2023-02-19T08:06:17.355Z,4.70
2023-02-19T08:08:44.768Z,5.53
2023-02-19T08:11:30.240Z,5.65
2023-02-19T08:13:57.483Z,4.13
2023-02-19T08:16:40.597Z,3.97
2023-02-19T08:19:09.642Z,5.38
2023-02-19T08:21:36.698Z,5.78
2023-02-19T08:24:04.323Z,4.53
2023-02-19T08:26:32.399Z,4.68
2023-02-19T08:29:00.110Z,5.13
2023-02-19T08:31:27.743Z,5.75
2023-02-19T08:33:55.344Z,5.22
2023-02-19T08:36:22.327Z,3.90
2023-02-19T08:38:49.645Z,5.18
2023-02-19T08:41:16.642Z,4.28
2023-02-19T08:43:44.211Z,5.43
2023-02-19T08:46:12.304Z,4.50
2023-02-19T08:48:40.412Z,4.25
2023-02-19T08:51:10.660Z,3.83
2023-02-19T08:53:39.874Z,4.47
2023-02-19T08:56:11.948Z,5.95
2023-02-19T08:58:39.736Z,4.18
2023-02-19T09:01:12.607Z,5.95
2023-02-19T09:03:40.835Z,4.55
2023-02-19T09:06:08.553Z,4.25
2023-02-19T09:08:36.160Z,5.07
2023-02-19T09:11:07.047Z,4.15
2023-02-19T09:13:34.559Z,4.05
2023-02-19T09:16:03.816Z,3.25
2023-02-19T09:18:31.452Z,4.57
2023-02-19T09:21:04.608Z,3.40
2023-02-19T09:23:36.692Z,4.75
2023-02-19T09:26:07.098Z,6.50
2023-02-19T09:28:34.839Z,4.65
2023-02-19T09:31:11.401Z,3.40
2023-02-19T09:33:42.652Z,3.60
2023-02-19T09:36:10.276Z,3.88
2023-02-19T09:38:39.860Z,3.78
2023-02-19T09:41:09.916Z,6.28
2023-02-19T09:43:38.018Z,4.15
2023-02-19T09:46:17.490Z,5.03
2023-02-19T09:48:44.782Z,5.57
2023-02-19T09:51:14.013Z,3.95
2023-02-19T09:53:43.337Z,7.22
2023-02-19T09:56:10.553Z,4.40
2023-02-19T09:58:52.283Z,4.50
2023-02-19T10:01:19.556Z,4.28
2023-02-19T10:03:48.607Z,5.93
2023-02-19T10:06:24.285Z,4.97
2023-02-19T10:08:59.073Z,3.40
2023-02-19T10:11:26.547Z,3.60
2023-02-19T10:14:09.355Z,3.92
2023-02-19T10:16:41.293Z,3.97
2023-02-19T10:19:13.400Z,3.72
2023-02-19T10:21:41.332Z,3.70
2023-02-19T10:24:14.871Z,2.95
2023-02-19T10:26:41.826Z,3.53
2023-02-19T10:29:11.365Z,3.80
2023-02-19T10:31:38.449Z,4.25
2023-02-19T10:34:10.610Z,4.35
2023-02-19T10:36:41.094Z,3.85
2023-02-19T10:39:45.303Z,4.45
2023-02-19T10:42:18.065Z,3.65
2023-02-19T10:44:49.845Z,4.53
2023-02-19T10:47:23.542Z,4.20
2023-02-19T10:49:52.044Z,3.83
2023-02-19T10:52:30.364Z,3.92
2023-02-19T10:55:16.247Z,4.35
2023-02-19T10:57:43.336Z,5.70
2023-02-19T11:00:16.510Z,6.13
2023-02-19T11:02:44.550Z,4.85
2023-02-19T11:05:18.148Z,4.90
2023-02-19T11:07:45.107Z,4.57
2023-02-19T11:10:42.396Z,3.53
2023-02-19T11:13:19.990Z,3.63
2023-02-19T11:15:53.236Z,4.88
2023-02-19T11:18:28.661Z,4.00
2023-02-19T11:21:01.662Z,3.15
2023-02-19T11:23:37.532Z,3.38
2023-02-19T11:26:25.897Z,3.85
2023-02-19T11:29:01.502Z,2.90
2023-02-19T11:31:34.259Z,2.42
2023-02-19T11:34:14.853Z,2.47
2023-02-19T11:36:42.695Z,2.83
2023-02-19T11:39:15.476Z,2.40
2023-02-19T11:44:30.301Z,3.38
2023-02-19T11:47:03.869Z,2.83
2023-02-19T11:49:58.066Z,3.58
2023-02-19T11:52:32.382Z,3.58
2023-02-19T11:55:36.232Z,2.63
2023-02-19T11:58:03.528Z,2.47
2023-02-19T12:00:31.394Z,2.80
2023-02-19T12:03:43.560Z,2.80
2023-02-19T12:06:13.533Z,3.17
2023-02-19T12:09:10.033Z,2.42
2023-02-19T12:12:05.130Z,3.13
2023-02-19T12:15:08.352Z,3.00
2023-02-19T12:17:41.086Z,3.00
2023-02-19T12:20:26.818Z,3.20
2023-02-19T12:23:21.797Z,4.60
2023-02-19T12:26:22.076Z,2.80
2023-02-19T12:28:49.365Z,1.23
2023-02-19T12:31:28.214Z,2.45
2023-02-19T12:33:58.413Z,1.92
2023-02-19T12:36:59.985Z,2.05
2023-02-19T12:40:02.302Z,2.95
2023-02-19T12:42:47.216Z,2.80
2023-02-19T12:45:26.749Z,2.38
2023-02-19T12:48:04.122Z,1.48
2023-02-19T12:50:35.415Z,3.25
2023-02-19T12:53:24.810Z,2.00
2023-02-19T12:55:54.123Z,3.17
2023-02-19T12:58:55.012Z,2.08
2023-02-19T13:01:35.649Z,1.38
2023-02-19T13:04:29.998Z,1.50
2023-02-19T13:07:07.131Z,2.05
2023-02-19T13:09:40.006Z,3.80
2023-02-19T13:12:35.612Z,1.60
2023-02-19T13:15:13.528Z,1.48
2023-02-19T13:17:56.075Z,1.05
2023-02-19T13:20:32.258Z,2.53
2023-02-19T13:23:50.116Z,1.67
2023-02-19T13:26:23.192Z,1.00
2023-02-19T13:29:20.224Z,0.77
2023-02-19T13:31:55.290Z,1.88
2023-02-19T13:34:51.401Z,1.63
2023-02-19T13:37:20.017Z,1.10
2023-02-19T13:39:55.403Z,2.33
2023-02-19T13:42:31.100Z,0.95
2023-02-19T13:44:58.883Z,0.95
2023-02-19T13:47:49.044Z,1.10
2023-02-19T13:50:25.379Z,0.80
2023-02-19T13:52:57.801Z,1.50
2023-02-19T13:55:46.864Z,1.43
2023-02-19T13:58:32.932Z,1.33
2023-02-19T14:01:05.767Z,1.02
2023-02-19T14:06:08.325Z,1.42
2023-02-19T14:08:58.686Z,0.88
2023-02-19T14:11:47.682Z,0.88
2023-02-19T14:14:35.488Z,0.77
2023-02-19T14:20:17.877Z,0.82
2023-02-19T14:22:44.868Z,0.65
2023-02-19T14:25:38.290Z,0.93
2023-02-19T14:28:10.738Z,1.13
2023-02-19T14:31:04.541Z,1.65
2023-02-19T14:33:35.071Z,0.95
2023-02-19T14:36:14.284Z,0.60
2023-02-19T14:38:46.982Z,1.60
2023-02-19T14:41:16.751Z,1.88
2023-02-19T14:43:46.733Z,1.48
2023-02-19T14:46:44.378Z,1.05
2023-02-19T14:49:25.471Z,1.67
2023-02-19T14:51:59.861Z,4.43
2023-02-19T14:54:50.127Z,0.90
2023-02-19T14:57:24.666Z,1.38
2023-02-19T14:59:58.704Z,1.20
2023-02-19T15:02:27.765Z,1.02
2023-02-19T15:04:55.794Z,1.23
2023-02-19T15:07:32.940Z,1.23
2023-02-19T15:10:05.744Z,1.33
2023-02-19T15:12:47.866Z,1.60
2023-02-19T15:15:25.452Z,1.52
2023-02-19T15:17:54.521Z,1.25
2023-02-19T15:20:25.626Z,1.42
2023-02-19T15:22:54.937Z,1.27
2023-02-19T15:25:24.308Z,1.42
2023-02-19T15:27:51.723Z,1.75
2023-02-19T15:30:25.680Z,1.52
2023-02-19T15:32:58.657Z,1.48
2023-02-19T15:35:27.559Z,2.53
2023-02-19T15:37:55.421Z,1.77
2023-02-19T15:40:29.304Z,2.88
2023-02-19T15:42:57.694Z,1.65
2023-02-19T15:45:39.732Z,1.80
2023-02-19T15:48:26.249Z,1.63
2023-02-19T15:51:08.222Z,1.27
2023-02-19T15:53:41.635Z,1.52
2023-02-19T15:56:28.096Z,1.08
2023-02-19T15:59:06.113Z,1.08
2023-02-19T16:01:37.837Z,0.95
2023-02-19T16:04:14.622Z,1.38
2023-02-19T16:07:02.211Z,1.90
2023-02-19T16:09:40.184Z,2.03
2023-02-19T16:12:24.616Z,1.40
2023-02-19T16:14:51.958Z,0.63
2023-02-19T16:17:23.121Z,1.75
2023-02-19T16:19:54.846Z,1.85
2023-02-19T16:22:25.358Z,1.05
2023-02-19T16:24:58.599Z,0.82
2023-02-19T16:27:28.434Z,1.27
2023-02-19T16:29:56.244Z,1.30
2023-02-19T16:32:23.654Z,1.15
2023-02-19T16:34:52.366Z,3.13
2023-02-19T16:37:43.626Z,2.22
2023-02-19T16:40:16.603Z,1.88
2023-02-19T16:42:49.893Z,1.30
2023-02-19T16:45:18.450Z,1.42
2023-02-19T16:47:48.463Z,1.23
2023-02-19T16:50:20.918Z,2.60
2023-02-19T16:52:59.354Z,2.25
2023-02-19T16:55:28.301Z,1.40
2023-02-19T16:57:55.317Z,0.95
2023-02-19T17:00:25.224Z,1.30
2023-02-19T17:02:54.802Z,1.67
2023-02-19T17:05:24.218Z,1.88
2023-02-19T17:07:51.418Z,4.55
2023-02-19T17:10:28.133Z,3.00
2023-02-19T17:12:56.145Z,1.38
2023-02-19T17:15:23.874Z,1.55
2023-02-19T17:17:50.826Z,2.75
2023-02-19T17:20:21.174Z,1.52
2023-02-19T17:22:48.274Z,1.70
2023-02-19T17:25:15.566Z,1.73
2023-02-19T17:27:42.521Z,2.30
2023-02-19T17:30:23.964Z,2.33
2023-02-19T17:32:50.955Z,1.67
2023-02-19T17:35:18.456Z,1.88
2023-02-19T17:37:45.405Z,1.77
2023-02-19T17:40:33.852Z,1.85
2023-02-19T17:43:01.606Z,2.40
2023-02-19T17:45:29.448Z,1.95
2023-02-19T17:47:56.407Z,1.40
2023-02-19T17:50:26.595Z,1.23
2023-02-19T17:52:53.804Z,1.02
2023-02-19T17:55:21.334Z,1.35
2023-02-19T17:57:49.901Z,1.48
2023-02-19T18:00:20.015Z,1.73
2023-02-19T18:02:47.178Z,1.33
2023-02-19T18:05:14.782Z,1.33
2023-02-19T18:07:43.507Z,1.70
2023-02-19T18:10:11.330Z,1.40
2023-02-19T18:12:39.788Z,2.25
2023-02-19T18:15:08.778Z,2.63
2023-02-19T18:17:35.997Z,2.08
2023-02-19T18:20:04.798Z,2.25
2023-02-19T18:22:32.390Z,2.03
2023-02-19T18:24:59.736Z,2.63
2023-02-19T18:27:26.787Z,3.08
2023-02-19T18:29:55.792Z,3.13
2023-02-19T18:32:24.833Z,3.13
2023-02-19T18:34:57.488Z,3.13
2023-02-19T18:37:26.769Z,2.65
2023-02-19T18:39:54.230Z,2.42
2023-02-19T18:42:21.914Z,2.40
2023-02-19T18:44:50.201Z,1.55
2023-02-19T18:47:18.537Z,1.55
2023-02-19T18:49:57.100Z,2.63
2023-02-19T18:52:25.491Z,2.35
2023-02-19T18:54:55.133Z,2.83
2023-02-19T18:57:23.258Z,1.73
2023-02-19T18:59:51.416Z,2.35
2023-02-19T19:02:19.056Z,2.17
2023-02-19T19:04:51.003Z,2.20
2023-02-19T19:07:19.281Z,2.13
2023-02-19T19:09:46.777Z,1.50
2023-02-19T19:12:15.051Z,1.92
2023-02-19T19:14:43.031Z,1.65
2023-02-19T19:17:10.206Z,2.85
2023-02-19T19:19:38.612Z,2.17
2023-02-19T19:22:05.683Z,2.08
2023-02-19T19:24:35.207Z,1.63
2023-02-19T19:27:02.288Z,1.83
2023-02-19T19:29:30.433Z,2.28
2023-02-19T19:31:57.660Z,1.90
2023-02-19T19:34:24.928Z,2.03
2023-02-19T19:36:51.963Z,1.65
2023-02-19T19:39:19.566Z,1.85
2023-02-19T19:41:46.523Z,1.38
2023-02-19T19:44:13.891Z,1.67
2023-02-19T19:46:45.605Z,1.70
2023-02-19T19:49:20.924Z,1.90
2023-02-19T19:51:48.880Z,1.27
2023-02-19T19:54:16.433Z,1.65
2023-02-19T19:56:45.587Z,1.42
2023-02-19T19:59:17.090Z,1.10
2023-02-19T20:01:52.720Z,1.30
2023-02-19T20:04:22.308Z,2.10
2023-02-19T20:06:49.641Z,2.10
2023-02-19T20:09:18.233Z,1.55
2023-02-19T20:11:50.958Z,1.67
2023-02-19T20:14:19.971Z,1.58
2023-02-19T20:16:47.720Z,3.08
2023-02-19T20:19:16.463Z,1.77
2023-02-19T20:21:53.484Z,2.00
2023-02-19T20:24:27.186Z,1.77
2023-02-19T20:26:58.547Z,2.42
2023-02-19T20:29:30.723Z,1.92
2023-02-19T20:32:00.190Z,2.85
2023-02-19T20:34:28.197Z,1.83
2023-02-19T20:36:55.785Z,2.78
2023-02-19T20:39:28.642Z,1.95
2023-02-19T20:41:56.801Z,2.15
2023-02-19T20:44:24.676Z,2.72
2023-02-19T20:46:53.293Z,2.40
2023-02-19T20:49:23.031Z,1.88
2023-02-19T20:51:55.516Z,2.88
2023-02-19T20:54:25.604Z,2.92
2023-02-19T20:56:55.448Z,3.38
2023-02-19T20:59:27.242Z,3.08
2023-02-19T21:01:54.360Z,3.00
2023-02-19T21:04:22.003Z,3.70
2023-02-19T21:06:52.094Z,3.08
2023-02-19T21:09:20.634Z,2.85
2023-02-19T21:11:48.286Z,3.50
2023-02-19T21:14:16.172Z,3.35
2023-02-19T21:16:43.289Z,1.80
2023-02-19T21:19:10.858Z,2.03
2023-02-19T21:21:40.216Z,2.08
2023-02-19T21:24:09.476Z,1.80
2023-02-19T21:26:38.200Z,2.25
2023-02-19T21:29:07.478Z,1.73
2023-02-19T21:31:45.933Z,1.73
2023-02-19T21:34:16.463Z,1.90
2023-02-19T21:36:43.918Z,1.60
2023-02-19T21:39:14.235Z,1.90
2023-02-19T21:41:41.297Z,1.42
2023-02-19T21:44:08.776Z,1.42
2023-02-19T21:46:35.809Z,1.65
2023-02-19T21:49:04.036Z,1.70
2023-02-19T21:51:40.481Z,1.42
2023-02-19T21:54:13.187Z,0.82
2023-02-19T21:56:40.164Z,1.02
2023-02-19T21:59:07.688Z,1.25
2023-02-19T22:01:39.910Z,0.93
2023-02-19T22:04:08.660Z,1.27
2023-02-19T22:06:35.918Z,1.17
2023-02-19T22:09:03.840Z,1.23
2023-02-19T22:11:30.809Z,1.50
2023-02-19T22:13:58.211Z,2.55
2023-02-19T22:16:25.319Z,3.58
2023-02-19T22:18:57.765Z,5.80
2023-02-19T22:21:27.424Z,3.00
2023-02-19T22:23:55.326Z,2.80
2023-02-19T22:26:34.381Z,2.03
2023-02-19T22:29:07.300Z,1.70
2023-02-19T22:31:35.080Z,2.25
2023-02-19T22:34:02.858Z,1.80
2023-02-19T22:36:31.899Z,2.20
2023-02-19T22:38:59.978Z,1.83
2023-02-19T22:41:27.330Z,1.60
2023-02-19T22:43:55.737Z,2.67
2023-02-19T22:46:28.397Z,1.65
2023-02-19T22:48:56.008Z,1.20
2023-02-19T22:51:24.337Z,1.10
2023-02-19T22:53:54.577Z,1.48
2023-02-19T22:56:23.433Z,1.05
2023-02-19T22:58:51.271Z,0.88
2023-02-19T23:01:19.147Z,1.35
2023-02-19T23:03:58.059Z,0.90
2023-02-19T23:06:29.055Z,1.95
2023-02-19T23:08:58.382Z,1.00
2023-02-19T23:11:31.430Z,1.13
2023-02-19T23:13:59.167Z,1.38
2023-02-19T23:16:26.848Z,0.77
2023-02-19T23:18:55.265Z,1.92
2023-02-19T23:21:23.409Z,1.80
2023-02-19T23:23:51.147Z,2.10
2023-02-19T23:26:18.560Z,1.40
2023-02-19T23:28:46.934Z,1.50
2023-02-19T23:31:14.886Z,1.42
2023-02-19T23:33:42.907Z,1.55
2023-02-19T23:36:10.992Z,1.95
2023-02-19T23:38:38.735Z,1.67
2023-02-19T23:41:10.598Z,1.38
2023-02-19T23:43:38.365Z,1.33
2023-02-19T23:46:05.838Z,1.25
2023-02-19T23:48:33.287Z,1.67
2023-02-19T23:51:00.317Z,1.42
2023-02-19T23:53:27.761Z,2.10
2023-02-19T23:55:54.927Z,1.83
2023-02-19T23:58:22.431Z,1.58
